Aplicació Alertes

Dades de l'estació automàtica Santuari de Queralt

?
?
Resum diari 23:00 TU
Dades diàries de l'estació meteorològica
Temperatura mitjana 10.1 °C
Temperatura màxima 14.5 °C 9:50 TU
Temperatura mínima 6.2 °C 0:00 TU
Humitat relativa mitjana 32%
Precipitació acumulada 0.0 mm
Ratxa màxima del vent (10 m) 14.8 km/h - 161º 12:23 TU
Irradiació solar global 10.3 MJ/m2

El tram horari està expressat en Temps Universal (TU). Cal sumar una hora en horari d'hivern i dues en horari d'estiu per passar a l'hora oficial.

Santuari de Queralt

Metadades estació meteorol´gica
Municipi Berga
Comarca Berguedà
Altitud 1167 m
Data alta 23.01.2002
Estat actual Operativa
Dades de període
Període
TU
TM
°C
TX
°C
TN
°C
HRM
%
PPT
mm
VVM (10 m)
km/h
DVM (10 m)
graus
VVX (10 m)
km/h
RS
W/m2
00:00 - 00:30 6.8 7.2 6.2 53 0.0 2.9 333 5.4 0
00:30 - 01:00 7.1 7.3 6.7 51 0.0 1.8 310 6.1 0
01:00 - 01:30 6.7 6.8 6.5 52 0.0 4.7 175 6.8 (s/d)
01:30 - 02:00 6.9 7.2 6.5 43 0.0 3.2 322 6.1 0
02:00 - 02:30 7.0 7.2 6.8 30 0.0 5.4 334 7.2 (s/d)
02:30 - 03:00 7.1 7.5 6.9 25 0.0 6.1 328 10.8 (s/d)
03:00 - 03:30 7.9 8.4 7.0 29 0.0 4.7 196 7.6 (s/d)
03:30 - 04:00 7.6 7.8 7.3 34 0.0 2.9 173 5.8 (s/d)
04:00 - 04:30 8.2 9.3 7.5 24 0.0 3.6 337 8.6 0
04:30 - 05:00 8.6 8.9 8.3 19 0.0 6.5 329 13.3 (s/d)
05:00 - 05:30 9.8 10.1 9.0 12 0.0 2.2 9 6.1 0
05:30 - 06:00 9.5 9.7 9.3 13 0.0 4.7 9 9.7 0
06:00 - 06:30 9.9 10.2 9.5 11 0.0 6.8 325 10.1 (s/d)
06:30 - 07:00 10.1 10.7 9.6 12 0.0 1.8 199 5.8 4
07:00 - 07:30 10.1 10.7 9.4 12 0.0 2.2 343 6.8 42
07:30 - 08:00 10.3 11.8 9.5 14 0.0 3.2 88 7.2 88
08:00 - 08:30 12.7 13.3 11.4 17 0.0 3.2 136 8.3 192
08:30 - 09:00 12.8 13.9 11.7 17 0.0 2.5 118 7.9 276
09:00 - 09:30 13.5 14.3 13.0 25 0.0 4.3 145 9.4 331
09:30 - 10:00 13.9 14.5 13.3 18 0.0 5.4 128 10.4 397
10:00 - 10:30 13.5 14.2 12.7 19 0.0 6.5 129 11.2 452
10:30 - 11:00 12.9 13.3 12.6 25 0.0 6.1 130 11.2 485
11:00 - 11:30 13.5 14.0 12.7 29 0.0 5.4 144 11.2 502
11:30 - 12:00 13.9 14.4 13.3 34 0.0 5.4 156 12.2 506
12:00 - 12:30 13.7 14.3 12.8 40 0.0 7.6 158 14.8 494
12:30 - 13:00 13.2 13.7 12.6 40 0.0 7.6 159 14.0 467
13:00 - 13:30 13.3 13.8 12.6 40 0.0 7.9 156 14.4 411
13:30 - 14:00 13.3 13.7 12.8 38 0.0 7.9 152 12.6 367
14:00 - 14:30 12.8 13.4 12.1 39 0.0 6.5 158 11.2 308
14:30 - 15:00 12.4 13.0 11.7 41 0.0 8.3 164 14.4 236
15:00 - 15:30 11.4 11.9 10.5 45 0.0 7.6 166 11.9 154
15:30 - 16:00 10.1 10.7 9.4 48 0.0 6.5 191 11.5 58
16:00 - 16:30 9.7 10.0 9.3 44 0.0 4.3 199 7.6 5
16:30 - 17:00 9.9 10.0 9.9 34 0.0 2.9 217 6.8 0
17:00 - 17:30 9.9 10.0 9.6 27 0.0 4.0 185 6.5 (s/d)
17:30 - 18:00 9.7 9.9 9.6 29 0.0 3.2 209 5.8 0
18:00 - 18:30 9.7 9.9 9.5 28 0.0 4.7 205 9.7 (s/d)
18:30 - 19:00 9.6 9.7 9.5 30 0.0 6.8 227 10.8 (s/d)
19:00 - 19:30 9.5 9.6 9.4 32 0.0 6.1 216 8.6 (s/d)
19:30 - 20:00 9.3 9.5 9.1 32 0.0 2.5 252 7.2 (s/d)
20:00 - 20:30 9.2 9.4 8.9 32 0.0 1.4 191 5.4 0
20:30 - 21:00 9.3 9.7 8.8 32 0.0 6.1 197 10.1 0
21:00 - 21:30 8.6 8.8 8.3 36 0.0 5.8 204 9.7 (s/d)
21:30 - 22:00 8.4 8.6 8.1 38 0.0 5.0 206 7.6 (s/d)
22:00 - 22:30 7.9 8.1 7.7 44 0.0 6.5 188 8.6 (s/d)
22:30 - 23:00 7.6 7.9 7.5 50 0.0 5.0 202 8.3 (s/d)
23:00 - 23:30 7.2 7.7 6.7 57 0.0 4.3 205 6.8 0

Les dades en taronja només han passat un control de qualitat automàtic. Resta pendent la seva validació definitiva.